sensor_id;sensor_type;location;lat;lon;timestamp;temperature;humidity
39067;DHT22;24821;51.988;6.020;2023-08-21T00:00:50;20.40;99.90
39067;DHT22;24821;51.988;6.020;2023-08-21T00:03:16;20.40;99.90
39067;DHT22;24821;51.988;6.020;2023-08-21T00:05:41;20.30;99.90
39067;DHT22;24821;51.988;6.020;2023-08-21T00:08:07;20.30;99.90
39067;DHT22;24821;51.988;6.020;2023-08-21T00:10:33;20.30;99.90
39067;DHT22;24821;51.988;6.020;2023-08-21T00:12:58;20.30;99.90
39067;DHT22;24821;51.988;6.020;2023-08-21T00:15:24;20.40;99.90
39067;DHT22;24821;51.988;6.020;2023-08-21T00:17:49;20.40;99.90
39067;DHT22;24821;51.988;6.020;2023-08-21T00:20:15;20.40;99.90
39067;DHT22;24821;51.988;6.020;2023-08-21T00:22:41;20.40;99.90
39067;DHT22;24821;51.988;6.020;2023-08-21T00:25:07;20.40;99.90
39067;DHT22;24821;51.988;6.020;2023-08-21T00:27:32;20.40;99.90
39067;DHT22;24821;51.988;6.020;2023-08-21T00:29:59;20.40;99.90
39067;DHT22;24821;51.988;6.020;2023-08-21T00:32:25;20.40;99.90
39067;DHT22;24821;51.988;6.020;2023-08-21T00:34:51;20.40;99.90
39067;DHT22;24821;51.988;6.020;2023-08-21T00:37:16;20.40;99.90
39067;DHT22;24821;51.988;6.020;2023-08-21T00:39:42;20.40;99.90
39067;DHT22;24821;51.988;6.020;2023-08-21T00:42:07;20.40;99.90
39067;DHT22;24821;51.988;6.020;2023-08-21T00:44:33;20.30;99.90
39067;DHT22;24821;51.988;6.020;2023-08-21T00:46:58;20.30;99.90
39067;DHT22;24821;51.988;6.020;2023-08-21T00:49:24;20.20;99.90
39067;DHT22;24821;51.988;6.020;2023-08-21T00:51:51;20.20;99.90
39067;DHT22;24821;51.988;6.020;2023-08-21T00:54:17;20.20;99.90
39067;DHT22;24821;51.988;6.020;2023-08-21T00:56:44;20.20;99.90
39067;DHT22;24821;51.988;6.020;2023-08-21T00:59:10;20.20;99.90
39067;DHT22;24821;51.988;6.020;2023-08-21T01:01:37;20.20;99.90
39067;DHT22;24821;51.988;6.020;2023-08-21T01:04:03;20.20;99.90
39067;DHT22;24821;51.988;6.020;2023-08-21T01:06:28;20.30;99.90
39067;DHT22;24821;51.988;6.020;2023-08-21T01:09:02;20.30;99.90
39067;DHT22;24821;51.988;6.020;2023-08-21T01:11:46;20.30;99.90
39067;DHT22;24821;51.988;6.020;2023-08-21T01:14:33;20.30;99.90
39067;DHT22;24821;51.988;6.020;2023-08-21T01:17:04;20.30;99.90
39067;DHT22;24821;51.988;6.020;2023-08-21T01:19:43;20.20;99.90
39067;DHT22;24821;51.988;6.020;2023-08-21T01:22:10;20.30;99.90
39067;DHT22;24821;51.988;6.020;2023-08-21T01:24:37;20.20;99.90
39067;DHT22;24821;51.988;6.020;2023-08-21T01:27:03;20.20;99.90
39067;DHT22;24821;51.988;6.020;2023-08-21T01:29:29;20.10;99.90
39067;DHT22;24821;51.988;6.020;2023-08-21T01:32:09;20.10;99.90
39067;DHT22;24821;51.988;6.020;2023-08-21T01:34:39;20.10;99.90
39067;DHT22;24821;51.988;6.020;2023-08-21T01:37:06;19.90;99.90
39067;DHT22;24821;51.988;6.020;2023-08-21T01:39:33;19.90;99.90
39067;DHT22;24821;51.988;6.020;2023-08-21T01:41:59;19.90;99.90
39067;DHT22;24821;51.988;6.020;2023-08-21T01:44:25;19.80;99.90
39067;DHT22;24821;51.988;6.020;2023-08-21T01:46:52;19.80;99.90
39067;DHT22;24821;51.988;6.020;2023-08-21T01:49:18;19.80;99.90
39067;DHT22;24821;51.988;6.020;2023-08-21T01:51:44;19.80;99.90
39067;DHT22;24821;51.988;6.020;2023-08-21T01:54:10;19.80;99.90
39067;DHT22;24821;51.988;6.020;2023-08-21T01:56:35;19.70;99.90
39067;DHT22;24821;51.988;6.020;2023-08-21T01:59:02;19.70;99.90
39067;DHT22;24821;51.988;6.020;2023-08-21T02:01:27;19.70;99.90
39067;DHT22;24821;51.988;6.020;2023-08-21T02:03:53;19.60;99.90
39067;DHT22;24821;51.988;6.020;2023-08-21T02:06:18;19.60;99.90
39067;DHT22;24821;51.988;6.020;2023-08-21T02:08:44;19.60;99.90
39067;DHT22;24821;51.988;6.020;2023-08-21T02:11:10;19.60;99.90
39067;DHT22;24821;51.988;6.020;2023-08-21T02:13:35;19.60;99.90
39067;DHT22;24821;51.988;6.020;2023-08-21T02:16:01;19.50;99.90
39067;DHT22;24821;51.988;6.020;2023-08-21T02:18:26;19.50;99.90
39067;DHT22;24821;51.988;6.020;2023-08-21T02:20:52;19.50;99.90
39067;DHT22;24821;51.988;6.020;2023-08-21T02:23:17;19.50;99.90
39067;DHT22;24821;51.988;6.020;2023-08-21T02:25:43;19.50;99.90
39067;DHT22;24821;51.988;6.020;2023-08-21T02:28:09;19.60;99.90
39067;DHT22;24821;51.988;6.020;2023-08-21T02:30:34;19.60;99.90
39067;DHT22;24821;51.988;6.020;2023-08-21T02:33:00;19.70;99.90
39067;DHT22;24821;51.988;6.020;2023-08-21T02:35:25;19.70;99.90
39067;DHT22;24821;51.988;6.020;2023-08-21T02:37:51;19.70;99.90
39067;DHT22;24821;51.988;6.020;2023-08-21T02:40:17;19.60;99.90
39067;DHT22;24821;51.988;6.020;2023-08-21T02:42:42;19.70;99.90
39067;DHT22;24821;51.988;6.020;2023-08-21T02:45:08;19.70;99.90
39067;DHT22;24821;51.988;6.020;2023-08-21T02:47:37;19.70;99.90
39067;DHT22;24821;51.988;6.020;2023-08-21T02:50:04;19.70;99.90
39067;DHT22;24821;51.988;6.020;2023-08-21T02:52:31;19.80;99.90
39067;DHT22;24821;51.988;6.020;2023-08-21T02:54:57;19.70;99.90
39067;DHT22;24821;51.988;6.020;2023-08-21T02:57:26;19.70;99.90
39067;DHT22;24821;51.988;6.020;2023-08-21T02:59:52;19.70;99.90
39067;DHT22;24821;51.988;6.020;2023-08-21T03:02:18;19.60;99.90
39067;DHT22;24821;51.988;6.020;2023-08-21T03:04:44;19.60;99.90
39067;DHT22;24821;51.988;6.020;2023-08-21T03:07:10;19.60;99.90
39067;DHT22;24821;51.988;6.020;2023-08-21T03:09:37;19.60;99.90
39067;DHT22;24821;51.988;6.020;2023-08-21T03:12:03;19.50;99.90
39067;DHT22;24821;51.988;6.020;2023-08-21T03:14:29;19.60;99.90
39067;DHT22;24821;51.988;6.020;2023-08-21T03:16:54;19.50;99.90
39067;DHT22;24821;51.988;6.020;2023-08-21T03:19:20;19.50;99.90
39067;DHT22;24821;51.988;6.020;2023-08-21T03:21:45;19.50;99.90
39067;DHT22;24821;51.988;6.020;2023-08-21T03:24:11;19.50;99.90
39067;DHT22;24821;51.988;6.020;2023-08-21T03:26:37;19.40;99.90
39067;DHT22;24821;51.988;6.020;2023-08-21T03:29:03;19.40;99.90
39067;DHT22;24821;51.988;6.020;2023-08-21T03:31:29;19.40;99.90
39067;DHT22;24821;51.988;6.020;2023-08-21T03:33:55;19.40;99.90
39067;DHT22;24821;51.988;6.020;2023-08-21T03:36:21;19.50;99.90
39067;DHT22;24821;51.988;6.020;2023-08-21T03:38:48;19.50;99.90
39067;DHT22;24821;51.988;6.020;2023-08-21T03:41:13;19.50;99.90
39067;DHT22;24821;51.988;6.020;2023-08-21T03:43:39;19.50;99.90
39067;DHT22;24821;51.988;6.020;2023-08-21T03:46:05;19.50;99.90
39067;DHT22;24821;51.988;6.020;2023-08-21T03:48:30;19.60;99.90
39067;DHT22;24821;51.988;6.020;2023-08-21T03:50:56;19.60;99.90
39067;DHT22;24821;51.988;6.020;2023-08-21T03:53:21;19.60;99.90
39067;DHT22;24821;51.988;6.020;2023-08-21T03:55:47;19.70;99.90
39067;DHT22;24821;51.988;6.020;2023-08-21T03:58:13;19.70;99.90
39067;DHT22;24821;51.988;6.020;2023-08-21T04:00:40;19.70;99.90
39067;DHT22;24821;51.988;6.020;2023-08-21T04:03:05;19.70;99.90
39067;DHT22;24821;51.988;6.020;2023-08-21T04:05:31;19.70;99.90
39067;DHT22;24821;51.988;6.020;2023-08-21T04:07:56;19.60;99.90
39067;DHT22;24821;51.988;6.020;2023-08-21T04:10:22;19.60;99.90
39067;DHT22;24821;51.988;6.020;2023-08-21T04:12:47;19.60;99.90
39067;DHT22;24821;51.988;6.020;2023-08-21T04:15:13;19.50;99.90
39067;DHT22;24821;51.988;6.020;2023-08-21T04:17:39;19.40;99.90
39067;DHT22;24821;51.988;6.020;2023-08-21T04:20:05;19.40;99.90
39067;DHT22;24821;51.988;6.020;2023-08-21T04:22:31;19.30;99.90
39067;DHT22;24821;51.988;6.020;2023-08-21T04:24:56;19.30;99.90
39067;DHT22;24821;51.988;6.020;2023-08-21T04:27:22;19.20;99.90
39067;DHT22;24821;51.988;6.020;2023-08-21T04:29:48;19.20;99.90
39067;DHT22;24821;51.988;6.020;2023-08-21T04:32:13;19.20;99.90
39067;DHT22;24821;51.988;6.020;2023-08-21T04:34:39;19.20;99.90
39067;DHT22;24821;51.988;6.020;2023-08-21T04:37:04;19.20;99.90
39067;DHT22;24821;51.988;6.020;2023-08-21T04:39:30;19.20;99.90
39067;DHT22;24821;51.988;6.020;2023-08-21T04:41:56;19.30;99.90
39067;DHT22;24821;51.988;6.020;2023-08-21T04:44:21;19.30;99.90
39067;DHT22;24821;51.988;6.020;2023-08-21T04:46:48;19.30;99.90
39067;DHT22;24821;51.988;6.020;2023-08-21T04:49:14;19.30;99.90
39067;DHT22;24821;51.988;6.020;2023-08-21T04:51:39;19.40;99.90
39067;DHT22;24821;51.988;6.020;2023-08-21T04:54:05;19.40;99.90
39067;DHT22;24821;51.988;6.020;2023-08-21T04:56:30;19.40;99.90
39067;DHT22;24821;51.988;6.020;2023-08-21T04:58:56;19.40;99.90
39067;DHT22;24821;51.988;6.020;2023-08-21T05:01:21;19.40;99.90
39067;DHT22;24821;51.988;6.020;2023-08-21T05:03:47;19.50;99.90
39067;DHT22;24821;51.988;6.020;2023-08-21T05:06:13;19.50;99.90
39067;DHT22;24821;51.988;6.020;2023-08-21T05:08:38;19.50;99.90
39067;DHT22;24821;51.988;6.020;2023-08-21T05:11:04;19.50;99.90
39067;DHT22;24821;51.988;6.020;2023-08-21T05:13:29;19.50;99.90
39067;DHT22;24821;51.988;6.020;2023-08-21T05:15:57;19.50;99.90
39067;DHT22;24821;51.988;6.020;2023-08-21T05:18:24;19.40;99.90
39067;DHT22;24821;51.988;6.020;2023-08-21T05:20:50;19.50;99.90
39067;DHT22;24821;51.988;6.020;2023-08-21T05:23:16;19.50;99.90
39067;DHT22;24821;51.988;6.020;2023-08-21T05:25:46;19.50;99.90
39067;DHT22;24821;51.988;6.020;2023-08-21T05:28:12;19.60;99.90
39067;DHT22;24821;51.988;6.020;2023-08-21T05:30:37;19.60;99.90
39067;DHT22;24821;51.988;6.020;2023-08-21T05:33:03;19.60;99.90
39067;DHT22;24821;51.988;6.020;2023-08-21T05:35:35;19.70;99.90
39067;DHT22;24821;51.988;6.020;2023-08-21T05:38:05;19.70;99.90
39067;DHT22;24821;51.988;6.020;2023-08-21T05:40:31;19.70;99.90
39067;DHT22;24821;51.988;6.020;2023-08-21T05:42:57;19.60;99.90
39067;DHT22;24821;51.988;6.020;2023-08-21T05:45:22;19.60;99.90
39067;DHT22;24821;51.988;6.020;2023-08-21T05:47:48;19.70;99.90
39067;DHT22;24821;51.988;6.020;2023-08-21T05:50:13;19.70;99.90
39067;DHT22;24821;51.988;6.020;2023-08-21T05:52:40;19.70;99.90
39067;DHT22;24821;51.988;6.020;2023-08-21T05:55:05;19.80;99.90
39067;DHT22;24821;51.988;6.020;2023-08-21T05:57:31;20.00;99.90
39067;DHT22;24821;51.988;6.020;2023-08-21T05:59:57;20.10;99.90
39067;DHT22;24821;51.988;6.020;2023-08-21T06:02:22;20.20;99.90
39067;DHT22;24821;51.988;6.020;2023-08-21T06:04:48;20.20;99.90
39067;DHT22;24821;51.988;6.020;2023-08-21T06:07:14;20.30;99.90
39067;DHT22;24821;51.988;6.020;2023-08-21T06:09:40;20.40;99.90
39067;DHT22;24821;51.988;6.020;2023-08-21T06:12:05;20.40;99.90
39067;DHT22;24821;51.988;6.020;2023-08-21T06:14:31;20.40;99.90
39067;DHT22;24821;51.988;6.020;2023-08-21T06:17:01;20.40;99.90
39067;DHT22;24821;51.988;6.020;2023-08-21T06:19:27;20.50;99.90
39067;DHT22;24821;51.988;6.020;2023-08-21T06:21:54;20.50;99.90
39067;DHT22;24821;51.988;6.020;2023-08-21T06:24:20;20.50;99.90
39067;DHT22;24821;51.988;6.020;2023-08-21T06:26:46;20.50;99.90
39067;DHT22;24821;51.988;6.020;2023-08-21T06:29:11;20.60;99.90
39067;DHT22;24821;51.988;6.020;2023-08-21T06:31:37;20.70;99.90
39067;DHT22;24821;51.988;6.020;2023-08-21T06:34:03;20.80;99.90
39067;DHT22;24821;51.988;6.020;2023-08-21T06:36:28;20.80;99.90
39067;DHT22;24821;51.988;6.020;2023-08-21T06:38:55;20.90;99.90
39067;DHT22;24821;51.988;6.020;2023-08-21T06:41:21;21.00;99.90
39067;DHT22;24821;51.988;6.020;2023-08-21T06:43:46;21.00;99.90
39067;DHT22;24821;51.988;6.020;2023-08-21T06:46:12;21.00;99.90
39067;DHT22;24821;51.988;6.020;2023-08-21T06:48:39;21.00;99.90
39067;DHT22;24821;51.988;6.020;2023-08-21T06:51:06;21.10;99.90
39067;DHT22;24821;51.988;6.020;2023-08-21T06:53:32;21.20;99.90
39067;DHT22;24821;51.988;6.020;2023-08-21T06:55:57;21.20;99.90
39067;DHT22;24821;51.988;6.020;2023-08-21T06:58:23;21.30;99.90
39067;DHT22;24821;51.988;6.020;2023-08-21T07:00:48;21.30;99.90
39067;DHT22;24821;51.988;6.020;2023-08-21T07:03:14;21.40;99.90
39067;DHT22;24821;51.988;6.020;2023-08-21T07:05:40;21.50;99.90
39067;DHT22;24821;51.988;6.020;2023-08-21T07:08:06;21.50;99.90
39067;DHT22;24821;51.988;6.020;2023-08-21T07:10:38;21.60;99.90
39067;DHT22;24821;51.988;6.020;2023-08-21T07:13:04;21.70;99.90
39067;DHT22;24821;51.988;6.020;2023-08-21T07:15:29;21.70;99.90
39067;DHT22;24821;51.988;6.020;2023-08-21T07:17:55;21.70;99.90
39067;DHT22;24821;51.988;6.020;2023-08-21T07:20:21;21.70;99.90
39067;DHT22;24821;51.988;6.020;2023-08-21T07:22:47;21.70;99.90
39067;DHT22;24821;51.988;6.020;2023-08-21T07:25:13;21.80;99.90
39067;DHT22;24821;51.988;6.020;2023-08-21T07:27:38;21.80;99.90
39067;DHT22;24821;51.988;6.020;2023-08-21T07:30:05;21.90;99.90
39067;DHT22;24821;51.988;6.020;2023-08-21T07:32:31;21.90;99.90
39067;DHT22;24821;51.988;6.020;2023-08-21T07:34:57;22.10;99.90
39067;DHT22;24821;51.988;6.020;2023-08-21T07:37:22;22.10;99.90
39067;DHT22;24821;51.988;6.020;2023-08-21T07:39:48;22.10;99.90
39067;DHT22;24821;51.988;6.020;2023-08-21T07:42:14;22.20;99.90
39067;DHT22;24821;51.988;6.020;2023-08-21T07:44:40;22.30;99.90
39067;DHT22;24821;51.988;6.020;2023-08-21T07:47:06;22.40;99.90
39067;DHT22;24821;51.988;6.020;2023-08-21T07:49:32;22.50;99.90
39067;DHT22;24821;51.988;6.020;2023-08-21T07:51:58;22.70;99.90
39067;DHT22;24821;51.988;6.020;2023-08-21T07:54:23;22.80;99.90
39067;DHT22;24821;51.988;6.020;2023-08-21T07:56:52;22.90;99.60
39067;DHT22;24821;51.988;6.020;2023-08-21T07:59:17;23.10;99.60
39067;DHT22;24821;51.988;6.020;2023-08-21T08:01:45;23.10;99.30
39067;DHT22;24821;51.988;6.020;2023-08-21T08:04:10;23.10;99.20
39067;DHT22;24821;51.988;6.020;2023-08-21T08:06:36;23.10;99.00
39067;DHT22;24821;51.988;6.020;2023-08-21T08:09:02;23.10;99.20
39067;DHT22;24821;51.988;6.020;2023-08-21T08:11:29;23.10;99.20
39067;DHT22;24821;51.988;6.020;2023-08-21T08:13:55;23.10;99.30
39067;DHT22;24821;51.988;6.020;2023-08-21T08:16:21;23.10;99.40
39067;DHT22;24821;51.988;6.020;2023-08-21T08:18:46;23.10;99.40
39067;DHT22;24821;51.988;6.020;2023-08-21T08:21:12;23.20;99.60
39067;DHT22;24821;51.988;6.020;2023-08-21T08:23:38;23.30;99.50
39067;DHT22;24821;51.988;6.020;2023-08-21T08:26:03;23.60;98.90
39067;DHT22;24821;51.988;6.020;2023-08-21T08:28:29;23.70;98.50
39067;DHT22;24821;51.988;6.020;2023-08-21T08:30:54;23.70;97.60
39067;DHT22;24821;51.988;6.020;2023-08-21T08:33:20;23.70;97.50
39067;DHT22;24821;51.988;6.020;2023-08-21T08:35:46;23.70;97.10
39067;DHT22;24821;51.988;6.020;2023-08-21T08:38:11;23.70;97.10
39067;DHT22;24821;51.988;6.020;2023-08-21T08:40:43;23.80;97.10
39067;DHT22;24821;51.988;6.020;2023-08-21T08:43:13;23.80;97.20
39067;DHT22;24821;51.988;6.020;2023-08-21T08:45:41;23.90;97.10
39067;DHT22;24821;51.988;6.020;2023-08-21T08:48:07;24.00;97.10
39067;DHT22;24821;51.988;6.020;2023-08-21T08:50:34;24.00;96.90
39067;DHT22;24821;51.988;6.020;2023-08-21T08:53:00;24.10;96.60
39067;DHT22;24821;51.988;6.020;2023-08-21T08:55:26;24.30;96.70
39067;DHT22;24821;51.988;6.020;2023-08-21T08:57:53;24.40;96.60
39067;DHT22;24821;51.988;6.020;2023-08-21T09:00:19;24.40;95.70
39067;DHT22;24821;51.988;6.020;2023-08-21T09:02:46;24.30;95.80
39067;DHT22;24821;51.988;6.020;2023-08-21T09:05:11;24.30;96.20
39067;DHT22;24821;51.988;6.020;2023-08-21T09:07:38;24.30;96.20
39067;DHT22;24821;51.988;6.020;2023-08-21T09:10:04;24.30;96.40
39067;DHT22;24821;51.988;6.020;2023-08-21T09:12:33;24.40;96.80
39067;DHT22;24821;51.988;6.020;2023-08-21T09:14:59;24.60;97.00
39067;DHT22;24821;51.988;6.020;2023-08-21T09:17:26;24.80;96.30
39067;DHT22;24821;51.988;6.020;2023-08-21T09:19:51;24.90;95.40
39067;DHT22;24821;51.988;6.020;2023-08-21T09:22:18;25.00;95.20
39067;DHT22;24821;51.988;6.020;2023-08-21T09:25:19;25.10;95.30
39067;DHT22;24821;51.988;6.020;2023-08-21T09:27:44;25.70;95.20
39067;DHT22;24821;51.988;6.020;2023-08-21T09:30:11;26.00;94.50
39067;DHT22;24821;51.988;6.020;2023-08-21T09:32:55;26.10;94.10
39067;DHT22;24821;51.988;6.020;2023-08-21T09:35:21;26.40;93.40
39067;DHT22;24821;51.988;6.020;2023-08-21T09:37:47;26.60;93.80
39067;DHT22;24821;51.988;6.020;2023-08-21T09:40:13;26.80;92.70
39067;DHT22;24821;51.988;6.020;2023-08-21T09:42:40;26.90;93.10
39067;DHT22;24821;51.988;6.020;2023-08-21T09:45:06;27.20;93.10
39067;DHT22;24821;51.988;6.020;2023-08-21T09:47:33;27.30;93.60
39067;DHT22;24821;51.988;6.020;2023-08-21T09:49:59;27.30;93.80
39067;DHT22;24821;51.988;6.020;2023-08-21T09:52:26;27.10;92.30
39067;DHT22;24821;51.988;6.020;2023-08-21T09:54:53;27.10;92.60
39067;DHT22;24821;51.988;6.020;2023-08-21T09:57:22;27.00;92.80
39067;DHT22;24821;51.988;6.020;2023-08-21T09:59:51;27.00;92.50
39067;DHT22;24821;51.988;6.020;2023-08-21T10:02:18;26.90;92.90
39067;DHT22;24821;51.988;6.020;2023-08-21T10:04:45;26.80;92.80
39067;DHT22;24821;51.988;6.020;2023-08-21T10:07:11;26.70;92.50
39067;DHT22;24821;51.988;6.020;2023-08-21T10:09:40;26.50;92.90
39067;DHT22;24821;51.988;6.020;2023-08-21T10:12:09;26.50;92.50
39067;DHT22;24821;51.988;6.020;2023-08-21T10:14:35;26.60;93.20
39067;DHT22;24821;51.988;6.020;2023-08-21T10:17:01;26.70;94.00
39067;DHT22;24821;51.988;6.020;2023-08-21T10:19:34;26.80;92.50
39067;DHT22;24821;51.988;6.020;2023-08-21T10:21:59;26.80;92.90
39067;DHT22;24821;51.988;6.020;2023-08-21T10:24:34;26.70;92.60
39067;DHT22;24821;51.988;6.020;2023-08-21T10:27:00;26.60;92.10
39067;DHT22;24821;51.988;6.020;2023-08-21T10:29:26;26.40;92.80
39067;DHT22;24821;51.988;6.020;2023-08-21T10:32:02;26.30;92.50
39067;DHT22;24821;51.988;6.020;2023-08-21T10:34:32;26.40;92.30
39067;DHT22;24821;51.988;6.020;2023-08-21T10:37:11;26.40;93.00
39067;DHT22;24821;51.988;6.020;2023-08-21T10:39:55;26.40;92.40
39067;DHT22;24821;51.988;6.020;2023-08-21T10:42:38;26.50;92.50
39067;DHT22;24821;51.988;6.020;2023-08-21T10:45:12;26.50;91.80
39067;DHT22;24821;51.988;6.020;2023-08-21T10:47:37;26.50;91.80
39067;DHT22;24821;51.988;6.020;2023-08-21T10:50:07;26.50;92.20
39067;DHT22;24821;51.988;6.020;2023-08-21T10:52:39;26.70;91.80
39067;DHT22;24821;51.988;6.020;2023-08-21T10:55:07;26.70;91.20
39067;DHT22;24821;51.988;6.020;2023-08-21T10:57:34;26.80;90.60
39067;DHT22;24821;51.988;6.020;2023-08-21T11:02:38;26.80;90.30
39067;DHT22;24821;51.988;6.020;2023-08-21T11:05:05;26.80;89.50
39067;DHT22;24821;51.988;6.020;2023-08-21T11:07:37;27.00;90.20
39067;DHT22;24821;51.988;6.020;2023-08-21T11:10:04;27.20;90.30
39067;DHT22;24821;51.988;6.020;2023-08-21T11:12:30;27.30;90.20
39067;DHT22;24821;51.988;6.020;2023-08-21T11:14:56;27.30;90.70
39067;DHT22;24821;51.988;6.020;2023-08-21T11:17:21;27.40;90.80
39067;DHT22;24821;51.988;6.020;2023-08-21T11:19:48;27.30;90.40
39067;DHT22;24821;51.988;6.020;2023-08-21T11:22:15;27.30;90.10
39067;DHT22;24821;51.988;6.020;2023-08-21T11:27:12;27.20;90.60
39067;DHT22;24821;51.988;6.020;2023-08-21T11:29:41;27.30;90.50
39067;DHT22;24821;51.988;6.020;2023-08-21T11:32:10;27.20;89.40
39067;DHT22;24821;51.988;6.020;2023-08-21T11:34:37;27.20;90.30
39067;DHT22;24821;51.988;6.020;2023-08-21T11:37:04;27.10;89.70
39067;DHT22;24821;51.988;6.020;2023-08-21T11:39:59;27.10;87.80
39067;DHT22;24821;51.988;6.020;2023-08-21T11:42:33;27.20;89.00
39067;DHT22;24821;51.988;6.020;2023-08-21T11:45:00;27.20;89.50
39067;DHT22;24821;51.988;6.020;2023-08-21T11:47:34;27.20;87.00
39067;DHT22;24821;51.988;6.020;2023-08-21T11:50:04;27.20;87.50
39067;DHT22;24821;51.988;6.020;2023-08-21T11:52:30;27.20;90.10
39067;DHT22;24821;51.988;6.020;2023-08-21T11:54:57;27.30;89.20
39067;DHT22;24821;51.988;6.020;2023-08-21T11:57:23;27.30;88.90
39067;DHT22;24821;51.988;6.020;2023-08-21T11:59:50;27.30;88.80
39067;DHT22;24821;51.988;6.020;2023-08-21T12:02:19;27.30;88.10
39067;DHT22;24821;51.988;6.020;2023-08-21T12:04:45;27.40;88.00
39067;DHT22;24821;51.988;6.020;2023-08-21T12:07:11;27.50;88.00
39067;DHT22;24821;51.988;6.020;2023-08-21T12:09:37;27.50;87.30
39067;DHT22;24821;51.988;6.020;2023-08-21T12:12:03;27.50;87.40
39067;DHT22;24821;51.988;6.020;2023-08-21T12:14:29;27.50;88.30
39067;DHT22;24821;51.988;6.020;2023-08-21T12:16:55;27.60;88.50
39067;DHT22;24821;51.988;6.020;2023-08-21T12:19:24;27.70;89.00
39067;DHT22;24821;51.988;6.020;2023-08-21T12:21:50;27.80;88.80
39067;DHT22;24821;51.988;6.020;2023-08-21T12:24:16;27.80;88.80
39067;DHT22;24821;51.988;6.020;2023-08-21T12:26:41;27.90;88.20
39067;DHT22;24821;51.988;6.020;2023-08-21T12:29:07;28.00;87.80
39067;DHT22;24821;51.988;6.020;2023-08-21T12:31:33;28.00;86.90
39067;DHT22;24821;51.988;6.020;2023-08-21T12:33:58;28.10;86.50
39067;DHT22;24821;51.988;6.020;2023-08-21T12:36:24;27.90;85.10
39067;DHT22;24821;51.988;6.020;2023-08-21T12:38:50;27.90;85.80
39067;DHT22;24821;51.988;6.020;2023-08-21T12:41:16;27.80;85.70
39067;DHT22;24821;51.988;6.020;2023-08-21T12:43:41;27.80;85.20
39067;DHT22;24821;51.988;6.020;2023-08-21T12:46:07;27.90;86.30
39067;DHT22;24821;51.988;6.020;2023-08-21T12:48:32;27.90;86.10
39067;DHT22;24821;51.988;6.020;2023-08-21T12:50:58;27.90;83.00
39067;DHT22;24821;51.988;6.020;2023-08-21T12:53:23;28.00;84.40
39067;DHT22;24821;51.988;6.020;2023-08-21T12:55:49;28.00;85.00
39067;DHT22;24821;51.988;6.020;2023-08-21T12:58:15;27.90;84.60
39067;DHT22;24821;51.988;6.020;2023-08-21T13:00:40;28.00;85.30
39067;DHT22;24821;51.988;6.020;2023-08-21T13:03:06;28.00;86.00
39067;DHT22;24821;51.988;6.020;2023-08-21T13:05:33;28.00;85.00
39067;DHT22;24821;51.988;6.020;2023-08-21T13:07:59;28.10;84.70
39067;DHT22;24821;51.988;6.020;2023-08-21T13:10:25;28.10;84.30
39067;DHT22;24821;51.988;6.020;2023-08-21T13:12:51;28.10;84.40
39067;DHT22;24821;51.988;6.020;2023-08-21T13:15:17;28.10;82.70
39067;DHT22;24821;51.988;6.020;2023-08-21T13:17:42;27.90;84.40
39067;DHT22;24821;51.988;6.020;2023-08-21T13:20:09;27.90;84.70
39067;DHT22;24821;51.988;6.020;2023-08-21T13:22:48;28.00;84.60
39067;DHT22;24821;51.988;6.020;2023-08-21T13:25:15;28.10;83.60
39067;DHT22;24821;51.988;6.020;2023-08-21T13:27:40;28.10;83.40
39067;DHT22;24821;51.988;6.020;2023-08-21T13:30:06;28.20;83.10
39067;DHT22;24821;51.988;6.020;2023-08-21T13:32:33;28.20;84.00
39067;DHT22;24821;51.988;6.020;2023-08-21T13:34:59;28.30;83.50
39067;DHT22;24821;51.988;6.020;2023-08-21T13:37:24;28.30;83.10
39067;DHT22;24821;51.988;6.020;2023-08-21T13:39:52;28.30;84.10
39067;DHT22;24821;51.988;6.020;2023-08-21T13:42:17;28.40;82.40
39067;DHT22;24821;51.988;6.020;2023-08-21T13:44:43;28.40;81.80
39067;DHT22;24821;51.988;6.020;2023-08-21T13:47:10;28.50;81.90
39067;DHT22;24821;51.988;6.020;2023-08-21T13:49:37;28.50;81.30
39067;DHT22;24821;51.988;6.020;2023-08-21T13:52:02;28.50;81.50
39067;DHT22;24821;51.988;6.020;2023-08-21T13:54:28;28.50;81.00
39067;DHT22;24821;51.988;6.020;2023-08-21T13:56:54;28.50;82.50
39067;DHT22;24821;51.988;6.020;2023-08-21T13:59:20;28.50;82.30
39067;DHT22;24821;51.988;6.020;2023-08-21T14:01:45;28.50;82.50
39067;DHT22;24821;51.988;6.020;2023-08-21T14:04:11;28.50;83.40
39067;DHT22;24821;51.988;6.020;2023-08-21T14:06:37;28.50;82.20
39067;DHT22;24821;51.988;6.020;2023-08-21T14:09:02;28.50;83.00
39067;DHT22;24821;51.988;6.020;2023-08-21T14:11:28;28.50;82.80
39067;DHT22;24821;51.988;6.020;2023-08-21T14:13:53;28.50;82.60
39067;DHT22;24821;51.988;6.020;2023-08-21T14:16:19;28.60;82.70
39067;DHT22;24821;51.988;6.020;2023-08-21T14:18:45;28.60;82.80
39067;DHT22;24821;51.988;6.020;2023-08-21T14:21:10;28.60;82.80
39067;DHT22;24821;51.988;6.020;2023-08-21T14:23:36;28.60;82.50
39067;DHT22;24821;51.988;6.020;2023-08-21T14:26:03;28.50;81.10
39067;DHT22;24821;51.988;6.020;2023-08-21T14:28:29;28.50;80.10
39067;DHT22;24821;51.988;6.020;2023-08-21T14:30:54;28.50;80.90
39067;DHT22;24821;51.988;6.020;2023-08-21T14:33:21;28.40;79.80
39067;DHT22;24821;51.988;6.020;2023-08-21T14:35:46;28.50;79.60
39067;DHT22;24821;51.988;6.020;2023-08-21T14:38:12;28.40;80.70
39067;DHT22;24821;51.988;6.020;2023-08-21T14:40:37;28.40;80.10
39067;DHT22;24821;51.988;6.020;2023-08-21T14:43:03;28.40;78.90
39067;DHT22;24821;51.988;6.020;2023-08-21T14:45:29;28.40;78.20
39067;DHT22;24821;51.988;6.020;2023-08-21T14:47:54;28.40;76.80
39067;DHT22;24821;51.988;6.020;2023-08-21T14:50:20;28.40;77.50
39067;DHT22;24821;51.988;6.020;2023-08-21T14:52:46;28.40;78.20
39067;DHT22;24821;51.988;6.020;2023-08-21T14:55:13;28.50;78.20
39067;DHT22;24821;51.988;6.020;2023-08-21T14:57:39;28.50;76.60
39067;DHT22;24821;51.988;6.020;2023-08-21T15:00:05;28.50;75.30
39067;DHT22;24821;51.988;6.020;2023-08-21T15:02:30;28.50;75.50
39067;DHT22;24821;51.988;6.020;2023-08-21T15:04:56;28.50;75.80
39067;DHT22;24821;51.988;6.020;2023-08-21T15:07:22;28.50;75.80
39067;DHT22;24821;51.988;6.020;2023-08-21T15:09:47;28.40;75.70
39067;DHT22;24821;51.988;6.020;2023-08-21T15:12:13;28.40;73.50
39067;DHT22;24821;51.988;6.020;2023-08-21T15:14:38;28.40;74.70
39067;DHT22;24821;51.988;6.020;2023-08-21T15:17:04;28.40;72.90
39067;DHT22;24821;51.988;6.020;2023-08-21T15:19:29;28.40;73.60
39067;DHT22;24821;51.988;6.020;2023-08-21T15:21:55;28.30;75.40
39067;DHT22;24821;51.988;6.020;2023-08-21T15:24:21;28.30;74.70
39067;DHT22;24821;51.988;6.020;2023-08-21T15:26:47;28.40;75.20
39067;DHT22;24821;51.988;6.020;2023-08-21T15:29:13;28.30;75.70
39067;DHT22;24821;51.988;6.020;2023-08-21T15:31:38;28.30;73.30